sensor_id;sensor_type;location;lat;lon;timestamp;P1;durP1;ratioP1;P2;durP2;ratioP2
22965;SDS011;11649;48.090;9.754;2022-10-22T00:00:00;6.18;;;3.38;;
22965;SDS011;11649;48.090;9.754;2022-10-22T00:02:27;4.43;;;3.47;;
22965;SDS011;11649;48.090;9.754;2022-10-22T00:04:54;5.85;;;3.35;;
22965;SDS011;11649;48.090;9.754;2022-10-22T00:07:22;5.90;;;3.28;;
22965;SDS011;11649;48.090;9.754;2022-10-22T00:09:49;6.80;;;3.03;;
22965;SDS011;11649;48.090;9.754;2022-10-22T00:12:16;6.30;;;3.20;;
22965;SDS011;11649;48.090;9.754;2022-10-22T00:14:43;3.65;;;1.73;;
22965;SDS011;11649;48.090;9.754;2022-10-22T00:17:10;5.18;;;1.35;;
22965;SDS011;11649;48.090;9.754;2022-10-22T00:19:37;4.65;;;1.25;;
22965;SDS011;11649;48.090;9.754;2022-10-22T00:22:04;1.30;;;0.88;;
22965;SDS011;11649;48.090;9.754;2022-10-22T00:24:32;4.00;;;0.98;;
22965;SDS011;11649;48.090;9.754;2022-10-22T00:26:59;0.98;;;0.90;;
22965;SDS011;11649;48.090;9.754;2022-10-22T00:29:26;1.38;;;0.80;;
22965;SDS011;11649;48.090;9.754;2022-10-22T00:31:54;1.85;;;0.70;;
22965;SDS011;11649;48.090;9.754;2022-10-22T00:34:26;1.50;;;0.95;;
22965;SDS011;11649;48.090;9.754;2022-10-22T00:36:53;3.50;;;1.05;;
22965;SDS011;11649;48.090;9.754;2022-10-22T00:39:20;2.20;;;1.10;;
22965;SDS011;11649;48.090;9.754;2022-10-22T00:41:49;2.28;;;1.10;;
22965;SDS011;11649;48.090;9.754;2022-10-22T00:47:22;3.28;;;1.48;;
22965;SDS011;11649;48.090;9.754;2022-10-22T00:49:50;3.50;;;1.42;;
22965;SDS011;11649;48.090;9.754;2022-10-22T00:52:18;4.50;;;1.77;;
22965;SDS011;11649;48.090;9.754;2022-10-22T00:54:45;2.42;;;1.30;;
22965;SDS011;11649;48.090;9.754;2022-10-22T00:57:12;2.20;;;1.10;;
22965;SDS011;11649;48.090;9.754;2022-10-22T00:59:39;2.83;;;1.00;;
22965;SDS011;11649;48.090;9.754;2022-10-22T01:02:06;2.08;;;1.00;;
22965;SDS011;11649;48.090;9.754;2022-10-22T01:04:33;2.15;;;1.20;;
22965;SDS011;11649;48.090;9.754;2022-10-22T01:06:59;2.80;;;1.13;;
22965;SDS011;11649;48.090;9.754;2022-10-22T01:09:38;1.95;;;1.17;;
22965;SDS011;11649;48.090;9.754;2022-10-22T01:15:06;4.05;;;1.00;;
22965;SDS011;11649;48.090;9.754;2022-10-22T01:26:20;2.33;;;1.20;;
22965;SDS011;11649;48.090;9.754;2022-10-22T01:29:08;2.73;;;0.93;;
22965;SDS011;11649;48.090;9.754;2022-10-22T01:31:39;3.05;;;0.80;;
22965;SDS011;11649;48.090;9.754;2022-10-22T01:34:12;2.42;;;1.08;;
22965;SDS011;11649;48.090;9.754;2022-10-22T01:36:42;6.88;;;1.00;;
22965;SDS011;11649;48.090;9.754;2022-10-22T01:39:12;1.85;;;1.10;;
22965;SDS011;11649;48.090;9.754;2022-10-22T01:41:44;2.13;;;0.90;;
22965;SDS011;11649;48.090;9.754;2022-10-22T01:44:28;1.75;;;0.90;;
22965;SDS011;11649;48.090;9.754;2022-10-22T01:47:02;5.07;;;0.90;;
22965;SDS011;11649;48.090;9.754;2022-10-22T01:53:06;1.25;;;1.00;;
22965;SDS011;11649;48.090;9.754;2022-10-22T01:56:00;2.90;;;0.90;;
22965;SDS011;11649;48.090;9.754;2022-10-22T01:58:57;1.52;;;1.00;;
22965;SDS011;11649;48.090;9.754;2022-10-22T02:01:40;1.45;;;1.00;;
22965;SDS011;11649;48.090;9.754;2022-10-22T02:07:00;1.52;;;0.90;;
22965;SDS011;11649;48.090;9.754;2022-10-22T02:09:30;1.83;;;0.80;;
22965;SDS011;11649;48.090;9.754;2022-10-22T02:11:58;2.15;;;0.82;;
22965;SDS011;11649;48.090;9.754;2022-10-22T02:14:36;0.63;;;0.63;;
22965;SDS011;11649;48.090;9.754;2022-10-22T02:17:05;2.53;;;0.77;;
22965;SDS011;11649;48.090;9.754;2022-10-22T02:22:09;1.33;;;0.90;;
22965;SDS011;11649;48.090;9.754;2022-10-22T02:24:36;3.25;;;0.95;;
22965;SDS011;11649;48.090;9.754;2022-10-22T02:27:16;1.30;;;0.75;;
22965;SDS011;11649;48.090;9.754;2022-10-22T02:30:05;1.60;;;0.90;;
22965;SDS011;11649;48.090;9.754;2022-10-22T02:32:39;1.42;;;0.90;;
22965;SDS011;11649;48.090;9.754;2022-10-22T02:35:09;3.15;;;1.00;;
22965;SDS011;11649;48.090;9.754;2022-10-22T02:37:42;2.33;;;0.80;;
22965;SDS011;11649;48.090;9.754;2022-10-22T02:40:10;2.10;;;0.80;;
22965;SDS011;11649;48.090;9.754;2022-10-22T02:42:38;1.67;;;0.90;;
22965;SDS011;11649;48.090;9.754;2022-10-22T02:45:06;2.45;;;1.02;;
22965;SDS011;11649;48.090;9.754;2022-10-22T02:47:33;1.70;;;1.00;;
22965;SDS011;11649;48.090;9.754;2022-10-22T02:50:00;9.05;;;1.38;;
22965;SDS011;11649;48.090;9.754;2022-10-22T02:52:33;8.07;;;0.85;;
22965;SDS011;11649;48.090;9.754;2022-10-22T02:55:00;1.10;;;0.80;;
22965;SDS011;11649;48.090;9.754;2022-10-22T02:57:27;4.95;;;1.10;;
22965;SDS011;11649;48.090;9.754;2022-10-22T02:59:53;2.85;;;0.85;;
22965;SDS011;11649;48.090;9.754;2022-10-22T03:02:20;4.00;;;0.88;;
22965;SDS011;11649;48.090;9.754;2022-10-22T03:04:47;1.20;;;0.80;;
22965;SDS011;11649;48.090;9.754;2022-10-22T03:07:14;1.75;;;1.10;;
22965;SDS011;11649;48.090;9.754;2022-10-22T03:09:41;1.33;;;1.02;;
22965;SDS011;11649;48.090;9.754;2022-10-22T03:12:07;3.53;;;1.30;;
22965;SDS011;11649;48.090;9.754;2022-10-22T03:14:34;6.03;;;1.40;;
22965;SDS011;11649;48.090;9.754;2022-10-22T03:17:01;2.45;;;1.40;;
22965;SDS011;11649;48.090;9.754;2022-10-22T03:19:27;2.72;;;1.58;;
22965;SDS011;11649;48.090;9.754;2022-10-22T03:21:55;3.15;;;1.60;;
22965;SDS011;11649;48.090;9.754;2022-10-22T03:24:35;3.75;;;2.03;;
22965;SDS011;11649;48.090;9.754;2022-10-22T03:27:05;3.65;;;2.25;;
22965;SDS011;11649;48.090;9.754;2022-10-22T03:29:32;3.70;;;2.30;;
22965;SDS011;11649;48.090;9.754;2022-10-22T03:32:02;2.80;;;2.60;;
22965;SDS011;11649;48.090;9.754;2022-10-22T03:34:29;3.75;;;2.83;;
22965;SDS011;11649;48.090;9.754;2022-10-22T03:36:56;3.10;;;2.72;;
22965;SDS011;11649;48.090;9.754;2022-10-22T03:39:25;3.85;;;2.35;;
22965;SDS011;11649;48.090;9.754;2022-10-22T03:41:54;3.10;;;2.80;;
22965;SDS011;11649;48.090;9.754;2022-10-22T03:44:21;4.10;;;2.70;;
22965;SDS011;11649;48.090;9.754;2022-10-22T03:46:49;3.45;;;3.05;;
22965;SDS011;11649;48.090;9.754;2022-10-22T03:49:16;3.58;;;2.78;;
22965;SDS011;11649;48.090;9.754;2022-10-22T03:51:42;4.60;;;2.00;;
22965;SDS011;11649;48.090;9.754;2022-10-22T03:54:09;2.95;;;2.30;;
22965;SDS011;11649;48.090;9.754;2022-10-22T03:56:36;2.20;;;2.00;;
22965;SDS011;11649;48.090;9.754;2022-10-22T03:59:03;4.05;;;2.20;;
22965;SDS011;11649;48.090;9.754;2022-10-22T04:01:30;2.35;;;2.00;;
22965;SDS011;11649;48.090;9.754;2022-10-22T04:03:57;2.35;;;1.98;;
22965;SDS011;11649;48.090;9.754;2022-10-22T04:06:25;2.63;;;1.85;;
22965;SDS011;11649;48.090;9.754;2022-10-22T04:08:52;4.68;;;1.90;;
22965;SDS011;11649;48.090;9.754;2022-10-22T04:11:18;3.58;;;1.85;;
22965;SDS011;11649;48.090;9.754;2022-10-22T04:13:45;2.00;;;1.60;;
22965;SDS011;11649;48.090;9.754;2022-10-22T04:16:16;1.83;;;1.73;;
22965;SDS011;11649;48.090;9.754;2022-10-22T04:18:45;1.80;;;1.70;;
22965;SDS011;11649;48.090;9.754;2022-10-22T04:21:14;2.53;;;1.90;;
22965;SDS011;11649;48.090;9.754;2022-10-22T04:23:43;2.05;;;1.95;;
22965;SDS011;11649;48.090;9.754;2022-10-22T04:26:11;1.90;;;1.80;;
22965;SDS011;11649;48.090;9.754;2022-10-22T04:28:37;6.50;;;2.03;;
22965;SDS011;11649;48.090;9.754;2022-10-22T04:31:11;2.20;;;2.00;;
22965;SDS011;11649;48.090;9.754;2022-10-22T04:33:40;3.08;;;1.77;;
22965;SDS011;11649;48.090;9.754;2022-10-22T04:36:08;1.60;;;1.50;;
22965;SDS011;11649;48.090;9.754;2022-10-22T04:38:40;1.80;;;1.70;;
22965;SDS011;11649;48.090;9.754;2022-10-22T04:41:11;2.15;;;1.60;;
22965;SDS011;11649;48.090;9.754;2022-10-22T04:43:46;1.92;;;1.73;;
22965;SDS011;11649;48.090;9.754;2022-10-22T04:46:14;2.30;;;1.85;;
22965;SDS011;11649;48.090;9.754;2022-10-22T04:48:43;2.40;;;1.48;;
22965;SDS011;11649;48.090;9.754;2022-10-22T04:51:12;1.45;;;1.35;;
22965;SDS011;11649;48.090;9.754;2022-10-22T04:53:41;1.40;;;1.30;;
22965;SDS011;11649;48.090;9.754;2022-10-22T04:56:12;1.30;;;1.20;;
22965;SDS011;11649;48.090;9.754;2022-10-22T04:58:42;1.75;;;1.20;;
22965;SDS011;11649;48.090;9.754;2022-10-22T05:01:13;4.00;;;0.98;;
22965;SDS011;11649;48.090;9.754;2022-10-22T05:03:42;0.93;;;0.80;;
22965;SDS011;11649;48.090;9.754;2022-10-22T05:06:10;1.95;;;1.00;;
22965;SDS011;11649;48.090;9.754;2022-10-22T05:08:42;0.80;;;0.80;;
22965;SDS011;11649;48.090;9.754;2022-10-22T05:11:10;1.25;;;0.80;;
22965;SDS011;11649;48.090;9.754;2022-10-22T05:13:41;1.17;;;1.02;;
22965;SDS011;11649;48.090;9.754;2022-10-22T05:16:08;2.08;;;0.90;;
22965;SDS011;11649;48.090;9.754;2022-10-22T05:18:36;1.13;;;0.90;;
22965;SDS011;11649;48.090;9.754;2022-10-22T05:21:04;3.90;;;0.80;;
22965;SDS011;11649;48.090;9.754;2022-10-22T05:23:34;2.35;;;0.90;;
22965;SDS011;11649;48.090;9.754;2022-10-22T05:26:01;1.05;;;0.85;;
22965;SDS011;11649;48.090;9.754;2022-10-22T05:28:29;1.45;;;0.80;;
22965;SDS011;11649;48.090;9.754;2022-10-22T05:30:57;1.55;;;0.70;;
22965;SDS011;11649;48.090;9.754;2022-10-22T05:33:25;0.90;;;0.70;;
22965;SDS011;11649;48.090;9.754;2022-10-22T05:35:53;1.90;;;0.60;;
22965;SDS011;11649;48.090;9.754;2022-10-22T05:38:20;2.08;;;0.75;;
22965;SDS011;11649;48.090;9.754;2022-10-22T05:40:47;1.92;;;0.60;;
22965;SDS011;11649;48.090;9.754;2022-10-22T05:43:24;1.30;;;0.82;;
22965;SDS011;11649;48.090;9.754;2022-10-22T05:45:50;2.70;;;0.80;;
22965;SDS011;11649;48.090;9.754;2022-10-22T05:48:17;1.48;;;0.60;;
22965;SDS011;11649;48.090;9.754;2022-10-22T05:50:44;1.80;;;0.40;;
22965;SDS011;11649;48.090;9.754;2022-10-22T05:53:16;1.25;;;0.63;;
22965;SDS011;11649;48.090;9.754;2022-10-22T05:55:44;1.35;;;0.50;;
22965;SDS011;11649;48.090;9.754;2022-10-22T05:58:11;1.38;;;0.60;;
22965;SDS011;11649;48.090;9.754;2022-10-22T06:00:38;1.15;;;0.50;;
22965;SDS011;11649;48.090;9.754;2022-10-22T06:03:05;2.40;;;0.65;;
22965;SDS011;11649;48.090;9.754;2022-10-22T06:05:35;0.40;;;0.40;;
22965;SDS011;11649;48.090;9.754;2022-10-22T06:08:02;0.55;;;0.40;;
22965;SDS011;11649;48.090;9.754;2022-10-22T06:10:30;0.68;;;0.68;;
22965;SDS011;11649;48.090;9.754;2022-10-22T06:12:57;2.72;;;0.80;;
22965;SDS011;11649;48.090;9.754;2022-10-22T06:15:24;2.97;;;0.82;;
22965;SDS011;11649;48.090;9.754;2022-10-22T06:17:50;0.50;;;0.50;;
22965;SDS011;11649;48.090;9.754;2022-10-22T06:20:17;0.65;;;0.63;;
22965;SDS011;11649;48.090;9.754;2022-10-22T06:22:44;0.90;;;0.70;;
22965;SDS011;11649;48.090;9.754;2022-10-22T06:25:11;0.95;;;0.80;;
22965;SDS011;11649;48.090;9.754;2022-10-22T06:27:39;0.70;;;0.70;;
22965;SDS011;11649;48.090;9.754;2022-10-22T06:30:06;1.30;;;1.13;;
22965;SDS011;11649;48.090;9.754;2022-10-22T06:32:33;2.15;;;0.90;;
22965;SDS011;11649;48.090;9.754;2022-10-22T06:35:00;1.13;;;0.60;;
22965;SDS011;11649;48.090;9.754;2022-10-22T06:37:27;0.50;;;0.50;;
22965;SDS011;11649;48.090;9.754;2022-10-22T06:39:53;2.13;;;0.80;;
22965;SDS011;11649;48.090;9.754;2022-10-22T06:42:20;0.40;;;0.40;;
22965;SDS011;11649;48.090;9.754;2022-10-22T06:44:47;0.50;;;0.35;;
22965;SDS011;11649;48.090;9.754;2022-10-22T06:47:14;0.80;;;0.80;;
22965;SDS011;11649;48.090;9.754;2022-10-22T06:49:40;3.15;;;0.90;;
22965;SDS011;11649;48.090;9.754;2022-10-22T06:52:08;1.55;;;0.63;;
22965;SDS011;11649;48.090;9.754;2022-10-22T06:54:34;2.30;;;0.80;;
22965;SDS011;11649;48.090;9.754;2022-10-22T06:57:01;2.22;;;0.73;;
22965;SDS011;11649;48.090;9.754;2022-10-22T06:59:28;1.30;;;0.73;;
22965;SDS011;11649;48.090;9.754;2022-10-22T07:01:55;1.05;;;0.77;;
22965;SDS011;11649;48.090;9.754;2022-10-22T07:04:22;3.20;;;1.10;;
22965;SDS011;11649;48.090;9.754;2022-10-22T07:06:48;1.35;;;0.90;;
22965;SDS011;11649;48.090;9.754;2022-10-22T07:09:15;3.83;;;0.68;;
22965;SDS011;11649;48.090;9.754;2022-10-22T07:11:42;2.00;;;0.50;;
22965;SDS011;11649;48.090;9.754;2022-10-22T07:14:10;0.60;;;0.60;;
22965;SDS011;11649;48.090;9.754;2022-10-22T07:16:38;1.25;;;0.52;;
22965;SDS011;11649;48.090;9.754;2022-10-22T07:19:07;0.90;;;0.70;;
22965;SDS011;11649;48.090;9.754;2022-10-22T07:21:34;1.20;;;0.80;;
22965;SDS011;11649;48.090;9.754;2022-10-22T07:24:01;2.25;;;1.10;;
22965;SDS011;11649;48.090;9.754;2022-10-22T07:26:28;2.05;;;0.80;;
22965;SDS011;11649;48.090;9.754;2022-10-22T07:29:00;1.75;;;1.42;;
22965;SDS011;11649;48.090;9.754;2022-10-22T07:31:27;1.90;;;1.20;;
22965;SDS011;11649;48.090;9.754;2022-10-22T07:33:54;1.10;;;1.00;;
22965;SDS011;11649;48.090;9.754;2022-10-22T07:36:21;1.80;;;0.90;;
22965;SDS011;11649;48.090;9.754;2022-10-22T07:38:48;8.65;;;6.43;;
22965;SDS011;11649;48.090;9.754;2022-10-22T07:41:20;12.68;;;7.82;;
22965;SDS011;11649;48.090;9.754;2022-10-22T07:43:46;4.75;;;3.60;;
22965;SDS011;11649;48.090;9.754;2022-10-22T07:46:13;3.50;;;3.00;;
22965;SDS011;11649;48.090;9.754;2022-10-22T07:48:40;5.95;;;3.97;;
22965;SDS011;11649;48.090;9.754;2022-10-22T07:51:07;2.20;;;1.30;;
22965;SDS011;11649;48.090;9.754;2022-10-22T07:53:34;2.20;;;1.40;;
22965;SDS011;11649;48.090;9.754;2022-10-22T07:56:01;1.60;;;1.50;;
22965;SDS011;11649;48.090;9.754;2022-10-22T07:58:28;2.53;;;1.80;;
22965;SDS011;11649;48.090;9.754;2022-10-22T08:00:56;3.65;;;1.90;;
22965;SDS011;11649;48.090;9.754;2022-10-22T08:03:26;3.17;;;1.80;;
22965;SDS011;11649;48.090;9.754;2022-10-22T08:05:54;2.00;;;1.67;;
22965;SDS011;11649;48.090;9.754;2022-10-22T08:08:21;3.35;;;1.80;;
22965;SDS011;11649;48.090;9.754;2022-10-22T08:10:54;8.82;;;2.25;;
22965;SDS011;11649;48.090;9.754;2022-10-22T08:13:22;7.30;;;2.00;;
22965;SDS011;11649;48.090;9.754;2022-10-22T08:15:49;3.45;;;2.00;;
22965;SDS011;11649;48.090;9.754;2022-10-22T08:18:21;2.70;;;1.80;;
22965;SDS011;11649;48.090;9.754;2022-10-22T08:20:48;2.05;;;1.85;;
22965;SDS011;11649;48.090;9.754;2022-10-22T08:23:14;4.32;;;2.35;;
22965;SDS011;11649;48.090;9.754;2022-10-22T08:25:41;2.92;;;2.03;;
22965;SDS011;11649;48.090;9.754;2022-10-22T08:28:08;2.35;;;2.10;;
22965;SDS011;11649;48.090;9.754;2022-10-22T08:30:35;2.67;;;2.20;;
22965;SDS011;11649;48.090;9.754;2022-10-22T08:33:04;5.63;;;2.33;;
22965;SDS011;11649;48.090;9.754;2022-10-22T08:35:31;2.50;;;2.00;;
22965;SDS011;11649;48.090;9.754;2022-10-22T08:37:58;2.42;;;1.40;;
22965;SDS011;11649;48.090;9.754;2022-10-22T08:40:29;3.60;;;2.00;;
22965;SDS011;11649;48.090;9.754;2022-10-22T08:46:08;5.57;;;1.98;;
22965;SDS011;11649;48.090;9.754;2022-10-22T08:48:53;7.13;;;1.80;;
22965;SDS011;11649;48.090;9.754;2022-10-22T08:51:23;4.63;;;2.00;;
22965;SDS011;11649;48.090;9.754;2022-10-22T08:53:57;2.80;;;1.63;;
22965;SDS011;11649;48.090;9.754;2022-10-22T08:56:28;2.42;;;1.50;;
22965;SDS011;11649;48.090;9.754;2022-10-22T08:59:00;1.55;;;1.27;;
22965;SDS011;11649;48.090;9.754;2022-10-22T09:01:35;1.67;;;1.30;;
22965;SDS011;11649;48.090;9.754;2022-10-22T09:04:27;2.03;;;1.23;;
22965;SDS011;11649;48.090;9.754;2022-10-22T09:06:54;4.35;;;1.40;;
22965;SDS011;11649;48.090;9.754;2022-10-22T09:09:31;1.88;;;1.50;;
22965;SDS011;11649;48.090;9.754;2022-10-22T09:12:05;5.50;;;2.00;;
22965;SDS011;11649;48.090;9.754;2022-10-22T09:14:32;2.70;;;1.70;;
22965;SDS011;11649;48.090;9.754;2022-10-22T09:27:41;1.92;;;1.50;;
22965;SDS011;11649;48.090;9.754;2022-10-22T09:30:14;4.30;;;1.52;;
22965;SDS011;11649;48.090;9.754;2022-10-22T09:32:43;1.30;;;1.20;;
22965;SDS011;11649;48.090;9.754;2022-10-22T09:35:11;4.15;;;1.50;;
22965;SDS011;11649;48.090;9.754;2022-10-22T09:37:46;3.05;;;1.58;;
22965;SDS011;11649;48.090;9.754;2022-10-22T09:40:15;1.52;;;1.20;;
22965;SDS011;11649;48.090;9.754;2022-10-22T09:42:44;2.97;;;1.33;;
22965;SDS011;11649;48.090;9.754;2022-10-22T09:45:17;3.50;;;1.30;;
22965;SDS011;11649;48.090;9.754;2022-10-22T09:47:49;3.22;;;1.42;;
22965;SDS011;11649;48.090;9.754;2022-10-22T09:50:40;1.80;;;1.42;;
22965;SDS011;11649;48.090;9.754;2022-10-22T09:55:44;5.93;;;1.60;;
22965;SDS011;11649;48.090;9.754;2022-10-22T09:58:17;9.05;;;1.50;;
22965;SDS011;11649;48.090;9.754;2022-10-22T10:00:46;2.45;;;1.30;;
22965;SDS011;11649;48.090;9.754;2022-10-22T10:03:22;2.50;;;1.70;;
22965;SDS011;11649;48.090;9.754;2022-10-22T10:05:53;3.50;;;1.60;;
22965;SDS011;11649;48.090;9.754;2022-10-22T10:08:22;2.63;;;1.20;;
22965;SDS011;11649;48.090;9.754;2022-10-22T10:11:00;2.10;;;1.48;;
22965;SDS011;11649;48.090;9.754;2022-10-22T10:30:37;3.05;;;1.48;;
22965;SDS011;11649;48.090;9.754;2022-10-22T10:35:40;2.35;;;1.80;;
22965;SDS011;11649;48.090;9.754;2022-10-22T10:38:26;2.88;;;2.00;;
22965;SDS011;11649;48.090;9.754;2022-10-22T10:41:30;3.25;;;2.13;;
22965;SDS011;11649;48.090;9.754;2022-10-22T10:46:47;1.55;;;1.17;;
22965;SDS011;11649;48.090;9.754;2022-10-22T10:49:34;3.75;;;1.67;;
22965;SDS011;11649;48.090;9.754;2022-10-22T10:55:12;1.85;;;1.25;;
22965;SDS011;11649;48.090;9.754;2022-10-22T10:57:55;3.88;;;1.55;;
22965;SDS011;11649;48.090;9.754;2022-10-22T11:00:26;3.42;;;2.05;;
22965;SDS011;11649;48.090;9.754;2022-10-22T11:05:39;4.13;;;1.98;;
22965;SDS011;11649;48.090;9.754;2022-10-22T11:08:29;1.88;;;1.20;;
22965;SDS011;11649;48.090;9.754;2022-10-22T11:11:04;4.20;;;1.42;;
22965;SDS011;11649;48.090;9.754;2022-10-22T11:13:55;1.95;;;1.63;;
22965;SDS011;11649;48.090;9.754;2022-10-22T11:19:23;3.40;;;1.15;;
22965;SDS011;11649;48.090;9.754;2022-10-22T11:22:27;2.65;;;1.10;;
22965;SDS011;11649;48.090;9.754;2022-10-22T11:27:39;2.78;;;1.42;;
22965;SDS011;11649;48.090;9.754;2022-10-22T11:30:12;5.38;;;1.30;;
22965;SDS011;11649;48.090;9.754;2022-10-22T11:32:45;2.00;;;1.20;;
22965;SDS011;11649;48.090;9.754;2022-10-22T11:35:21;2.20;;;1.20;;
22965;SDS011;11649;48.090;9.754;2022-10-22T11:40:21;2.20;;;1.10;;
22965;SDS011;11649;48.090;9.754;2022-10-22T11:43:06;3.22;;;1.02;;
22965;SDS011;11649;48.090;9.754;2022-10-22T11:45:40;2.90;;;1.05;;
22965;SDS011;11649;48.090;9.754;2022-10-22T11:48:17;2.40;;;1.10;;
22965;SDS011;11649;48.090;9.754;2022-10-22T11:50:57;2.63;;;1.13;;
22965;SDS011;11649;48.090;9.754;2022-10-22T12:03:39;2.70;;;1.17;;
22965;SDS011;11649;48.090;9.754;2022-10-22T12:06:19;2.63;;;1.13;;
22965;SDS011;11649;48.090;9.754;2022-10-22T12:17:01;4.88;;;1.60;;
22965;SDS011;11649;48.090;9.754;2022-10-22T12:19:46;2.08;;;1.48;;
22965;SDS011;11649;48.090;9.754;2022-10-22T12:24:46;6.82;;;2.55;;
22965;SDS011;11649;48.090;9.754;2022-10-22T12:27:22;3.33;;;1.80;;
22965;SDS011;11649;48.090;9.754;2022-10-22T12:29:55;3.70;;;1.40;;
22965;SDS011;11649;48.090;9.754;2022-10-22T12:32:23;2.45;;;1.40;;
22965;SDS011;11649;48.090;9.754;2022-10-22T12:35:04;7.20;;;1.98;;
22965;SDS011;11649;48.090;9.754;2022-10-22T12:37:33;4.30;;;1.70;;
22965;SDS011;11649;48.090;9.754;2022-10-22T12:42:53;2.50;;;1.40;;
22965;SDS011;11649;48.090;9.754;2022-10-22T12:45:22;3.72;;;1.27;;
22965;SDS011;11649;48.090;9.754;2022-10-22T12:47:58;5.05;;;1.50;;
22965;SDS011;11649;48.090;9.754;2022-10-22T12:50:34;3.67;;;1.35;;
22965;SDS011;11649;48.090;9.754;2022-10-22T12:53:05;3.58;;;1.30;;
22965;SDS011;11649;48.090;9.754;2022-10-22T12:55:43;3.90;;;1.27;;
22965;SDS011;11649;48.090;9.754;2022-10-22T12:58:15;2.97;;;1.38;;
22965;SDS011;11649;48.090;9.754;2022-10-22T13:00:45;2.67;;;1.15;;
22965;SDS011;11649;48.090;9.754;2022-10-22T13:03:23;2.75;;;1.20;;
22965;SDS011;11649;48.090;9.754;2022-10-22T13:06:21;4.32;;;1.40;;
22965;SDS011;11649;48.090;9.754;2022-10-22T13:11:52;4.07;;;1.63;;
22965;SDS011;11649;48.090;9.754;2022-10-22T13:25:03;2.60;;;1.00;;
22965;SDS011;11649;48.090;9.754;2022-10-22T13:27:47;7.22;;;1.20;;
22965;SDS011;11649;48.090;9.754;2022-10-22T13:30:21;3.92;;;1.27;;
22965;SDS011;11649;48.090;9.754;2022-10-22T13:32:54;4.35;;;1.10;;
22965;SDS011;11649;48.090;9.754;2022-10-22T13:35:33;2.85;;;1.00;;
22965;SDS011;11649;48.090;9.754;2022-10-22T13:38:07;2.22;;;1.25;;
22965;SDS011;11649;48.090;9.754;2022-10-22T13:40:40;3.60;;;1.48;;
22965;SDS011;11649;48.090;9.754;2022-10-22T13:43:07;3.67;;;1.15;;
22965;SDS011;11649;48.090;9.754;2022-10-22T13:45:34;2.03;;;1.13;;
22965;SDS011;11649;48.090;9.754;2022-10-22T13:48:01;2.15;;;0.90;;
22965;SDS011;11649;48.090;9.754;2022-10-22T13:50:28;3.08;;;1.10;;
22965;SDS011;11649;48.090;9.754;2022-10-22T13:52:55;6.60;;;1.40;;
22965;SDS011;11649;48.090;9.754;2022-10-22T13:55:24;4.97;;;1.00;;
22965;SDS011;11649;48.090;9.754;2022-10-22T13:57:59;5.43;;;1.30;;
22965;SDS011;11649;48.090;9.754;2022-10-22T14:00:37;8.52;;;1.38;;
22965;SDS011;11649;48.090;9.754;2022-10-22T14:03:09;5.28;;;1.13;;
22965;SDS011;11649;48.090;9.754;2022-10-22T14:05:37;2.97;;;1.00;;
22965;SDS011;11649;48.090;9.754;2022-10-22T14:08:08;3.30;;;1.13;;
22965;SDS011;11649;48.090;9.754;2022-10-22T14:10:39;4.82;;;1.60;;
22965;SDS011;11649;48.090;9.754;2022-10-22T14:13:06;3.47;;;1.55;;
22965;SDS011;11649;48.090;9.754;2022-10-22T14:15:37;4.28;;;1.00;;
22965;SDS011;11649;48.090;9.754;2022-10-22T14:18:05;5.07;;;1.33;;
22965;SDS011;11649;48.090;9.754;2022-10-22T14:20:34;3.80;;;1.63;;
22965;SDS011;11649;48.090;9.754;2022-10-22T14:23:13;1.45;;;0.95;;
22965;SDS011;11649;48.090;9.754;2022-10-22T14:25:44;3.55;;;1.45;;
22965;SDS011;11649;48.090;9.754;2022-10-22T14:28:12;6.63;;;1.10;;
22965;SDS011;11649;48.090;9.754;2022-10-22T14:30:39;6.20;;;1.05;;
22965;SDS011;11649;48.090;9.754;2022-10-22T14:33:14;2.40;;;1.25;;
22965;SDS011;11649;48.090;9.754;2022-10-22T14:35:43;4.45;;;1.60;;
22965;SDS011;11649;48.090;9.754;2022-10-22T14:38:10;2.00;;;1.20;;
22965;SDS011;11649;48.090;9.754;2022-10-22T14:40:38;4.28;;;1.30;;
22965;SDS011;11649;48.090;9.754;2022-10-22T14:43:26;1.90;;;0.98;;
22965;SDS011;11649;48.090;9.754;2022-10-22T14:45:56;2.10;;;0.82;;
22965;SDS011;11649;48.090;9.754;2022-10-22T14:48:23;2.22;;;1.13;;
22965;SDS011;11649;48.090;9.754;2022-10-22T14:50:50;3.88;;;1.60;;
22965;SDS011;11649;48.090;9.754;2022-10-22T14:53:17;4.07;;;1.50;;
22965;SDS011;11649;48.090;9.754;2022-10-22T14:55:44;5.10;;;1.45;;
22965;SDS011;11649;48.090;9.754;2022-10-22T14:58:12;3.75;;;2.08;;
22965;SDS011;11649;48.090;9.754;2022-10-22T15:00:40;2.65;;;1.83;;
22965;SDS011;11649;48.090;9.754;2022-10-22T15:03:08;2.53;;;1.50;;
22965;SDS011;11649;48.090;9.754;2022-10-22T15:05:35;4.50;;;1.33;;
22965;SDS011;11649;48.090;9.754;2022-10-22T15:08:09;3.20;;;1.80;;
22965;SDS011;11649;48.090;9.754;2022-10-22T15:10:36;3.35;;;1.50;;
22965;SDS011;11649;48.090;9.754;2022-10-22T15:13:03;3.60;;;1.67;;
22965;SDS011;11649;48.090;9.754;2022-10-22T15:15:30;3.35;;;2.20;;
22965;SDS011;11649;48.090;9.754;2022-10-22T15:18:04;3.90;;;2.25;;
22965;SDS011;11649;48.090;9.754;2022-10-22T15:20:31;4.82;;;2.47;;
22965;SDS011;11649;48.090;9.754;2022-10-22T15:22:58;2.15;;;1.63;;
22965;SDS011;11649;48.090;9.754;2022-10-22T15:25:25;4.25;;;2.10;;
22965;SDS011;11649;48.090;9.754;2022-10-22T15:27:52;6.65;;;4.05;;
22965;SDS011;11649;48.090;9.754;2022-10-22T15:30:29;7.32;;;2.92;;
22965;SDS011;11649;48.090;9.754;2022-10-22T15:32:56;3.70;;;1.80;;
22965;SDS011;11649;48.090;9.754;2022-10-22T15:35:25;4.57;;;1.35;;
22965;SDS011;11649;48.090;9.754;2022-10-22T15:37:52;3.65;;;1.75;;
22965;SDS011;11649;48.090;9.754;2022-10-22T15:40:19;4.07;;;1.60;;
22965;SDS011;11649;48.090;9.754;2022-10-22T15:42:46;3.58;;;1.50;;
22965;SDS011;11649;48.090;9.754;2022-10-22T15:45:13;2.42;;;1.42;;
22965;SDS011;11649;48.090;9.754;2022-10-22T15:47:43;2.25;;;1.13;;
22965;SDS011;11649;48.090;9.754;2022-10-22T15:50:13;6.70;;;1.30;;
22965;SDS011;11649;48.090;9.754;2022-10-22T15:52:39;4.78;;;0.93;;
22965;SDS011;11649;48.090;9.754;2022-10-22T15:55:06;4.28;;;1.95;;
22965;SDS011;11649;48.090;9.754;2022-10-22T15:57:36;5.60;;;1.85;;
22965;SDS011;11649;48.090;9.754;2022-10-22T16:00:04;3.50;;;1.73;;
22965;SDS011;11649;48.090;9.754;2022-10-22T16:02:32;5.68;;;2.03;;
22965;SDS011;11649;48.090;9.754;2022-10-22T16:04:59;5.78;;;1.80;;
22965;SDS011;11649;48.090;9.754;2022-10-22T16:07:26;3.35;;;1.80;;
22965;SDS011;11649;48.090;9.754;2022-10-22T16:09:56;4.75;;;1.75;;
22965;SDS011;11649;48.090;9.754;2022-10-22T16:12:23;7.35;;;1.88;;
22965;SDS011;11649;48.090;9.754;2022-10-22T16:14:50;2.15;;;1.40;;
22965;SDS011;11649;48.090;9.754;2022-10-22T16:17:17;5.22;;;1.40;;
22965;SDS011;11649;48.090;9.754;2022-10-22T16:19:44;9.75;;;2.00;;
22965;SDS011;11649;48.090;9.754;2022-10-22T16:22:12;3.80;;;1.35;;
22965;SDS011;11649;48.090;9.754;2022-10-22T16:24:41;2.97;;;1.20;;
22965;SDS011;11649;48.090;9.754;2022-10-22T16:27:08;9.18;;;1.50;;
22965;SDS011;11649;48.090;9.754;2022-10-22T16:29:36;14.60;;;2.08;;
22965;SDS011;11649;48.090;9.754;2022-10-22T16:32:04;6.85;;;1.40;;
22965;SDS011;11649;48.090;9.754;2022-10-22T16:34:31;7.55;;;1.30;;
22965;SDS011;11649;48.090;9.754;2022-10-22T16:36:58;5.38;;;1.13;;
22965;SDS011;11649;48.090;9.754;2022-10-22T16:39:24;19.90;;;1.65;;
22965;SDS011;11649;48.090;9.754;2022-10-22T16:41:51;2.92;;;1.30;;
22965;SDS011;11649;48.090;9.754;2022-10-22T16:44:18;3.42;;;1.38;;
22965;SDS011;11649;48.090;9.754;2022-10-22T16:46:45;12.93;;;1.58;;
22965;SDS011;11649;48.090;9.754;2022-10-22T16:49:11;5.25;;;1.30;;
22965;SDS011;11649;48.090;9.754;2022-10-22T16:51:38;11.02;;;1.45;;
22965;SDS011;11649;48.090;9.754;2022-10-22T16:54:05;8.68;;;1.50;;
22965;SDS011;11649;48.090;9.754;2022-10-22T16:56:37;5.32;;;1.65;;
22965;SDS011;11649;48.090;9.754;2022-10-22T16:59:04;3.50;;;1.38;;